createdAt,value
2018-06-25T00:01:26.516Z,9.00
2018-06-25T00:03:55.001Z,9.23
2018-06-25T00:06:23.594Z,9.30
2018-06-25T00:08:52.116Z,10.10
2018-06-25T00:11:20.606Z,10.37
2018-06-25T00:13:49.132Z,11.53
2018-06-25T00:16:17.617Z,10.03
2018-06-25T00:18:46.122Z,9.90
2018-06-25T00:21:14.625Z,10.27
2018-06-25T00:23:43.258Z,10.23
2018-06-25T00:26:11.767Z,10.13
2018-06-25T00:28:40.329Z,10.20
2018-06-25T00:31:08.907Z,10.43
2018-06-25T00:33:37.484Z,11.07
2018-06-25T00:36:06.037Z,12.83
2018-06-25T00:38:34.613Z,13.73
2018-06-25T00:41:03.165Z,14.20
2018-06-25T00:43:31.697Z,13.60
2018-06-25T00:46:00.228Z,13.80
2018-06-25T00:48:28.809Z,14.00
2018-06-25T00:50:57.285Z,15.77
2018-06-25T00:53:25.821Z,17.57
2018-06-25T00:55:54.297Z,17.43
2018-06-25T00:58:22.837Z,17.43
2018-06-25T01:00:51.353Z,16.60
2018-06-25T01:03:19.868Z,16.70
2018-06-25T01:05:48.417Z,18.53
2018-06-25T01:08:16.912Z,18.97
2018-06-25T01:10:45.437Z,17.93
2018-06-25T01:13:13.906Z,17.20
2018-06-25T01:15:42.450Z,17.13
2018-06-25T01:18:10.913Z,16.43
2018-06-25T01:20:39.654Z,16.43
2018-06-25T01:23:08.126Z,15.00
2018-06-25T01:25:36.673Z,14.33
2018-06-25T01:28:05.261Z,15.63
2018-06-25T01:30:33.765Z,14.30
2018-06-25T01:33:02.273Z,15.53
2018-06-25T01:35:30.806Z,15.13
2018-06-25T01:37:59.289Z,14.97
2018-06-25T01:40:27.809Z,14.37
2018-06-25T01:42:56.461Z,13.77
2018-06-25T01:45:25.073Z,14.60
2018-06-25T01:47:53.564Z,14.97
2018-06-25T01:50:22.142Z,14.00
2018-06-25T01:52:50.750Z,15.23
2018-06-25T01:55:19.261Z,14.50
2018-06-25T01:57:48.630Z,14.77
2018-06-25T02:00:17.194Z,13.40
2018-06-25T02:02:45.828Z,13.50
2018-06-25T02:05:14.397Z,11.93
2018-06-25T02:07:42.913Z,11.40
2018-06-25T02:10:11.430Z,11.60
2018-06-25T02:12:40.006Z,10.40
2018-06-25T02:15:08.885Z,11.47
2018-06-25T02:17:37.965Z,11.80
2018-06-25T02:20:07.157Z,11.90
2018-06-25T02:22:35.692Z,11.03
2018-06-25T02:25:04.302Z,10.70
2018-06-25T02:27:32.840Z,12.70
2018-06-25T02:30:01.324Z,14.00
2018-06-25T02:32:30.095Z,12.57
2018-06-25T02:34:58.588Z,13.70
2018-06-25T02:37:27.122Z,15.70
2018-06-25T02:39:55.629Z,16.20
2018-06-25T02:42:24.185Z,16.30
2018-06-25T02:44:52.705Z,16.27
2018-06-25T02:47:21.285Z,15.60
2018-06-25T02:49:49.797Z,16.37
2018-06-25T02:52:18.348Z,16.00
2018-06-25T02:54:46.896Z,15.10
2018-06-25T02:57:15.417Z,12.77
2018-06-25T02:59:44.001Z,13.50
2018-06-25T03:02:12.504Z,11.33
2018-06-25T03:04:41.065Z,12.43
2018-06-25T03:07:09.569Z,13.70
2018-06-25T03:09:38.124Z,13.27
2018-06-25T03:12:06.722Z,13.83
2018-06-25T03:14:35.220Z,13.20
2018-06-25T03:17:03.721Z,13.90
2018-06-25T03:19:32.234Z,15.07
2018-06-25T03:22:00.745Z,15.83
2018-06-25T03:24:29.268Z,14.07
2018-06-25T03:26:57.777Z,14.17
2018-06-25T03:29:26.286Z,13.90
2018-06-25T03:31:54.870Z,14.03
2018-06-25T03:34:23.370Z,14.70
2018-06-25T03:36:51.861Z,13.30
2018-06-25T03:39:20.358Z,13.30
2018-06-25T03:41:48.877Z,13.60
2018-06-25T03:44:17.427Z,12.40
2018-06-25T03:46:45.911Z,12.30
2018-06-25T03:49:14.549Z,13.73
2018-06-25T03:51:43.057Z,13.13
2018-06-25T03:54:11.545Z,14.53
2018-06-25T03:56:40.075Z,13.93
2018-06-25T03:59:08.553Z,15.73
2018-06-25T04:01:37.362Z,14.93
2018-06-25T04:04:05.877Z,14.70
2018-06-25T04:06:34.445Z,14.47
2018-06-25T04:09:03.272Z,15.77
2018-06-25T04:11:31.842Z,16.37
2018-06-25T04:14:00.449Z,14.73
2018-06-25T04:16:28.993Z,15.40
2018-06-25T04:19:01.981Z,15.80
2018-06-25T04:21:30.548Z,15.67
2018-06-25T04:23:59.280Z,16.20
2018-06-25T04:26:27.817Z,13.40
2018-06-25T04:28:56.324Z,13.30
2018-06-25T04:31:24.844Z,13.00
2018-06-25T04:33:53.320Z,12.70
2018-06-25T04:36:21.867Z,12.83
2018-06-25T04:38:50.369Z,14.13
2018-06-25T04:41:18.861Z,15.60
2018-06-25T04:43:47.385Z,16.37
2018-06-25T04:46:15.913Z,15.83
2018-06-25T04:48:44.461Z,17.40
2018-06-25T04:51:13.184Z,17.63
2018-06-25T04:53:42.385Z,16.63
2018-06-25T04:56:11.677Z,16.17
2018-06-25T04:58:40.277Z,16.20
2018-06-25T05:01:08.886Z,15.10
2018-06-25T05:03:37.437Z,15.73
2018-06-25T05:06:05.917Z,14.60
2018-06-25T05:08:34.491Z,13.50
2018-06-25T05:11:02.988Z,13.80
2018-06-25T05:13:31.520Z,15.70
2018-06-25T05:16:00.040Z,16.13
2018-06-25T05:18:28.570Z,17.70
2018-06-25T05:20:57.048Z,17.70
2018-06-25T05:23:26.281Z,19.77
2018-06-25T05:25:54.895Z,18.07
2018-06-25T05:28:23.753Z,19.20
2018-06-25T05:30:52.244Z,20.67
2018-06-25T05:33:20.796Z,22.63
2018-06-25T05:35:49.329Z,22.00
2018-06-25T05:38:17.885Z,20.57
2018-06-25T05:40:46.438Z,22.30
2018-06-25T05:43:14.903Z,21.63
2018-06-25T05:45:43.496Z,21.50
2018-06-25T05:48:11.964Z,20.50
2018-06-25T05:50:40.514Z,19.53
2018-06-25T05:53:09.054Z,21.63
2018-06-25T05:55:37.625Z,21.90
2018-06-25T05:58:06.129Z,20.40
2018-06-25T06:00:34.656Z,20.20
2018-06-25T06:03:03.113Z,19.03
2018-06-25T06:05:31.640Z,17.83
2018-06-25T06:08:00.122Z,19.80
2018-06-25T06:10:28.645Z,17.50
2018-06-25T06:12:57.153Z,16.60
2018-06-25T06:15:25.685Z,16.03
2018-06-25T06:17:54.168Z,16.57
2018-06-25T06:20:22.684Z,17.40
2018-06-25T06:22:51.864Z,16.80
2018-06-25T06:25:20.415Z,17.20
2018-06-25T06:27:49.058Z,20.20
2018-06-25T06:30:17.661Z,22.20
2018-06-25T06:32:46.158Z,21.73
2018-06-25T06:35:14.694Z,23.63
2018-06-25T06:37:43.220Z,21.40
2018-06-25T06:40:11.800Z,20.90
2018-06-25T06:42:40.264Z,19.60
2018-06-25T06:45:08.791Z,17.70
2018-06-25T06:47:37.361Z,18.50
2018-06-25T06:50:05.941Z,15.70
2018-06-25T06:52:34.474Z,15.83
2018-06-25T06:55:03.005Z,14.10
2018-06-25T06:57:31.561Z,13.80
2018-06-25T07:00:00.022Z,13.03
2018-06-25T07:02:28.533Z,9.93
2018-06-25T07:04:57.018Z,11.53
2018-06-25T07:07:25.543Z,10.10
2018-06-25T07:09:54.107Z,10.53
2018-06-25T07:12:22.638Z,10.27
2018-06-25T07:14:51.150Z,13.27
2018-06-25T07:17:19.690Z,8.27
2018-06-25T07:19:48.160Z,7.73
2018-06-25T07:22:16.725Z,7.27
2018-06-25T07:24:45.223Z,8.53
2018-06-25T07:27:13.703Z,9.67
2018-06-25T07:29:42.290Z,10.10
2018-06-25T07:32:11.017Z,9.40
2018-06-25T07:34:39.645Z,9.43
2018-06-25T07:37:08.165Z,10.67
2018-06-25T07:39:37.027Z,9.90
2018-06-25T07:42:05.593Z,10.57
2018-06-25T07:44:34.130Z,9.33
2018-06-25T07:47:02.349Z,10.47
2018-06-25T07:49:30.955Z,8.27
2018-06-25T07:51:59.445Z,9.30
2018-06-25T07:54:28.044Z,8.83
2018-06-25T07:56:56.556Z,9.33
2018-06-25T07:59:25.072Z,9.10
2018-06-25T08:01:53.553Z,9.97
2018-06-25T08:04:22.133Z,9.77
2018-06-25T08:06:50.592Z,10.27
2018-06-25T08:09:19.174Z,10.80
2018-06-25T08:11:47.763Z,10.00
2018-06-25T08:14:16.313Z,7.40
2018-06-25T08:16:44.884Z,7.87
2018-06-25T08:19:13.349Z,7.97
2018-06-25T08:21:41.910Z,7.60
2018-06-25T08:24:10.417Z,8.00
2018-06-25T08:26:38.961Z,8.33
2018-06-25T08:29:07.633Z,8.80
2018-06-25T08:31:36.310Z,7.47
2018-06-25T08:34:04.850Z,9.03
2018-06-25T08:36:33.337Z,7.10
2018-06-25T08:39:01.821Z,7.77
2018-06-25T08:41:30.331Z,8.20
2018-06-25T08:43:58.820Z,8.47
2018-06-25T08:46:27.323Z,8.10
2018-06-25T08:48:55.925Z,7.83
2018-06-25T08:51:24.478Z,7.53
2018-06-25T08:53:52.977Z,7.47
2018-06-25T08:56:21.485Z,7.00
2018-06-25T08:58:50.016Z,8.93
2018-06-25T09:01:18.909Z,8.10
2018-06-25T09:03:47.401Z,10.30
2018-06-25T09:06:15.986Z,9.03
2018-06-25T09:08:44.557Z,10.70
2018-06-25T09:11:13.065Z,9.23
2018-06-25T09:13:41.556Z,9.23
2018-06-25T09:16:10.098Z,9.57
2018-06-25T09:18:38.620Z,7.90
2018-06-25T09:21:07.171Z,7.50
2018-06-25T09:23:35.732Z,7.67
2018-06-25T09:26:04.241Z,7.10
2018-06-25T09:28:32.776Z,7.60
2018-06-25T09:31:01.294Z,7.50
2018-06-25T09:33:29.821Z,7.37
2018-06-25T09:35:58.317Z,7.50
2018-06-25T09:38:26.838Z,7.30
2018-06-25T09:40:55.416Z,7.90
2018-06-25T09:43:23.953Z,7.10
2018-06-25T09:45:52.466Z,8.00
2018-06-25T09:48:20.965Z,8.63
2018-06-25T09:50:49.529Z,8.40
2018-06-25T09:53:18.073Z,8.20
2018-06-25T09:55:46.804Z,9.20
2018-06-25T09:58:15.370Z,8.20
2018-06-25T10:00:49.293Z,10.30
2018-06-25T10:03:17.856Z,9.23
2018-06-25T10:05:46.392Z,9.23
2018-06-25T10:08:14.907Z,8.80
2018-06-25T10:10:43.415Z,10.40
2018-06-25T10:13:12.428Z,9.17
2018-06-25T10:15:41.300Z,9.40
2018-06-25T10:18:09.519Z,10.17
2018-06-25T10:20:38.069Z,9.07
2018-06-25T10:23:06.794Z,8.60
2018-06-25T10:25:35.311Z,8.57
2018-06-25T10:28:03.819Z,8.73
2018-06-25T10:30:32.329Z,8.33
2018-06-25T10:33:00.821Z,8.43
2018-06-25T10:35:29.313Z,9.23
2018-06-25T10:37:57.797Z,9.37
2018-06-25T10:40:26.321Z,10.67
2018-06-25T10:42:54.817Z,11.73
2018-06-25T10:45:23.333Z,9.60
2018-06-25T10:47:51.837Z,9.87
2018-06-25T10:50:20.373Z,9.07
2018-06-25T10:52:48.833Z,8.50
2018-06-25T10:55:17.381Z,8.50
2018-06-25T10:57:45.909Z,7.90
2018-06-25T11:00:14.451Z,8.37
2018-06-25T11:02:42.601Z,7.00
2018-06-25T11:05:11.126Z,8.43
2018-06-25T11:07:39.703Z,8.30
2018-06-25T11:10:08.173Z,8.00
2018-06-25T11:12:36.717Z,10.67
2018-06-25T11:15:05.433Z,9.80
2018-06-25T11:17:34.004Z,9.90
2018-06-25T11:20:02.640Z,9.97
2018-06-25T11:22:31.190Z,11.10
2018-06-25T11:24:59.750Z,11.90
2018-06-25T11:27:28.328Z,11.63
2018-06-25T11:29:56.777Z,12.20
2018-06-25T11:32:25.360Z,12.30
2018-06-25T11:34:53.913Z,11.83
2018-06-25T11:37:22.443Z,12.10
2018-06-25T11:39:50.921Z,12.23
2018-06-25T11:42:19.438Z,14.40
2018-06-25T11:44:47.893Z,15.13
2018-06-25T11:47:16.408Z,15.30
2018-06-25T11:49:44.925Z,15.97
2018-06-25T11:52:13.460Z,18.57
2018-06-25T11:54:41.951Z,18.00
2018-06-25T11:57:10.521Z,19.77
2018-06-25T11:59:38.981Z,18.60
2018-06-25T12:02:07.586Z,17.73
2018-06-25T12:04:36.050Z,18.40
2018-06-25T12:07:04.598Z,17.27
2018-06-25T12:09:33.093Z,17.50
2018-06-25T12:12:01.585Z,17.50
2018-06-25T12:14:30.084Z,16.73
2018-06-25T12:16:58.654Z,16.53
2018-06-25T12:19:27.185Z,15.50
2018-06-25T12:21:55.697Z,15.57
2018-06-25T12:24:24.204Z,16.07
2018-06-25T12:26:52.729Z,15.40
2018-06-25T12:29:21.309Z,16.50
2018-06-25T12:31:49.829Z,16.13
2018-06-25T12:34:18.353Z,13.87
2018-06-25T12:36:46.863Z,14.50
2018-06-25T12:39:15.368Z,15.30
2018-06-25T12:41:43.905Z,14.23
2018-06-25T12:44:12.430Z,14.27
2018-06-25T12:46:40.893Z,14.77
2018-06-25T12:49:10.025Z,15.10
2018-06-25T12:51:38.589Z,14.80
2018-06-25T12:54:07.126Z,15.70
2018-06-25T12:56:35.305Z,18.07
2018-06-25T12:59:03.858Z,15.83
2018-06-25T13:01:32.436Z,18.80
2018-06-25T13:04:00.870Z,17.87
2018-06-25T13:06:29.386Z,16.50
2018-06-25T13:08:57.989Z,15.73
2018-06-25T13:11:26.522Z,15.70
2018-06-25T13:13:54.993Z,15.57
2018-06-25T13:16:23.525Z,12.80
2018-06-25T13:18:52.025Z,13.10
2018-06-25T13:21:20.549Z,14.23
2018-06-25T13:23:49.044Z,15.50
2018-06-25T13:26:17.638Z,15.50
2018-06-25T13:28:46.142Z,17.80
2018-06-25T13:31:14.859Z,18.23
2018-06-25T13:33:43.241Z,17.00
2018-06-25T13:36:11.771Z,18.93
2018-06-25T13:38:40.316Z,19.73
2018-06-25T13:41:08.872Z,19.57
2018-06-25T13:43:37.405Z,19.03
2018-06-25T13:46:06.497Z,18.50
2018-06-25T13:48:34.991Z,18.33
2018-06-25T13:51:03.574Z,17.27
2018-06-25T13:53:32.081Z,18.53
2018-06-25T13:56:00.547Z,17.17
2018-06-25T13:58:29.036Z,17.57
2018-06-25T14:00:58.164Z,18.37
2018-06-25T14:03:26.673Z,18.13
2018-06-25T14:05:55.140Z,19.03
2018-06-25T14:08:23.657Z,16.93
2018-06-25T14:10:52.132Z,18.37
2018-06-25T14:13:20.682Z,16.63
2018-06-25T14:15:49.240Z,16.07
2018-06-25T14:18:17.718Z,15.97
2018-06-25T14:20:46.213Z,15.13
2018-06-25T14:23:14.785Z,14.37
2018-06-25T14:25:48.634Z,15.37
2018-06-25T14:28:22.787Z,14.10
2018-06-25T14:30:56.609Z,15.00
2018-06-25T14:33:30.452Z,15.97
2018-06-25T14:35:58.985Z,14.37
2018-06-25T14:38:27.507Z,11.27
2018-06-25T14:40:56.042Z,8.73
2018-06-25T14:43:24.599Z,7.30
2018-06-25T14:45:53.110Z,7.13
2018-06-25T14:48:21.633Z,7.67
2018-06-25T14:50:50.189Z,8.53
2018-06-25T14:53:18.741Z,8.70
2018-06-25T14:55:47.301Z,7.63
2018-06-25T14:58:15.790Z,5.97
2018-06-25T15:00:44.349Z,5.80
2018-06-25T15:03:12.824Z,5.73
2018-06-25T15:05:41.369Z,5.83
2018-06-25T15:08:09.925Z,5.40
2018-06-25T15:10:39.133Z,4.77
2018-06-25T15:13:07.707Z,5.00
2018-06-25T15:15:37.937Z,4.70
2018-06-25T15:18:06.961Z,4.63
2018-06-25T15:20:35.482Z,4.60
2018-06-25T15:23:04.037Z,4.60
2018-06-25T15:25:32.958Z,4.37
2018-06-25T15:28:01.429Z,4.50
2018-06-25T15:30:29.946Z,3.00
2018-06-25T15:32:58.742Z,3.27
2018-06-25T15:35:27.220Z,3.93
2018-06-25T15:37:55.792Z,3.27
2018-06-25T15:40:24.301Z,3.10
2018-06-25T15:42:52.837Z,3.83
2018-06-25T15:45:21.349Z,3.97
2018-06-25T15:47:49.870Z,3.43
2018-06-25T15:50:18.404Z,3.37
2018-06-25T15:52:46.938Z,3.20
2018-06-25T15:55:15.435Z,3.00
2018-06-25T15:57:43.977Z,2.63
2018-06-25T16:00:12.534Z,2.90
2018-06-25T16:02:41.069Z,2.57
2018-06-25T16:05:09.554Z,2.80
2018-06-25T16:07:38.102Z,2.50
2018-06-25T16:10:06.601Z,3.07
2018-06-25T16:12:35.148Z,2.57
2018-06-25T16:15:03.737Z,2.50
2018-06-25T16:17:32.296Z,2.53
2018-06-25T16:20:00.834Z,3.10
2018-06-25T16:22:29.036Z,3.63
2018-06-25T16:24:57.216Z,2.43
2018-06-25T16:27:25.579Z,2.73
2018-06-25T16:29:54.072Z,2.50
2018-06-25T16:32:22.616Z,3.20
2018-06-25T16:34:51.087Z,3.13
2018-06-25T16:37:19.614Z,3.53
2018-06-25T16:39:48.161Z,3.43
2018-06-25T16:42:16.818Z,5.30
2018-06-25T16:44:45.401Z,5.17
2018-06-25T16:47:13.895Z,4.40
2018-06-25T16:49:42.466Z,5.20
2018-06-25T16:52:10.941Z,3.63
2018-06-25T16:54:39.491Z,2.83
2018-06-25T16:57:07.985Z,3.00
2018-06-25T16:59:36.702Z,3.10
2018-06-25T17:02:05.180Z,3.07
2018-06-25T17:04:33.737Z,2.67
2018-06-25T17:07:02.261Z,3.27
2018-06-25T17:09:30.785Z,3.17
2018-06-25T17:11:59.289Z,3.03
2018-06-25T17:14:27.831Z,2.83
2018-06-25T17:16:56.320Z,3.10
2018-06-25T17:19:24.870Z,3.73
2018-06-25T17:21:53.374Z,4.90
2018-06-25T17:24:21.990Z,3.27
2018-06-25T17:26:50.822Z,4.27
2018-06-25T17:29:19.384Z,3.90
2018-06-25T17:31:47.997Z,3.57
2018-06-25T17:34:16.476Z,4.00
2018-06-25T17:36:45.113Z,4.17
2018-06-25T17:39:13.617Z,3.93
2018-06-25T17:41:42.146Z,3.63
2018-06-25T17:44:10.709Z,3.30
2018-06-25T17:46:39.225Z,3.10
2018-06-25T17:49:07.689Z,3.43
2018-06-25T17:51:36.254Z,3.30
2018-06-25T17:54:05.229Z,4.00
2018-06-25T17:56:33.765Z,4.87
2018-06-25T17:59:01.924Z,3.60
2018-06-25T18:01:30.487Z,3.70
2018-06-25T18:03:59.042Z,3.77
2018-06-25T18:06:27.604Z,3.17
2018-06-25T18:08:56.136Z,4.30
2018-06-25T18:11:24.806Z,4.13
2018-06-25T18:13:53.317Z,4.27
2018-06-25T18:16:21.834Z,3.90
2018-06-25T18:18:49.980Z,3.53
2018-06-25T18:21:20.098Z,3.23
2018-06-25T18:23:48.592Z,4.00
2018-06-25T18:26:17.109Z,4.40
2018-06-25T18:28:45.689Z,4.20
2018-06-25T18:31:14.225Z,4.20
2018-06-25T18:33:42.804Z,4.70
2018-06-25T18:36:11.729Z,3.87
2018-06-25T18:38:40.301Z,4.17
2018-06-25T18:41:08.846Z,4.20
2018-06-25T18:43:37.381Z,4.87
2018-06-25T18:46:05.908Z,4.83
2018-06-25T18:48:34.421Z,4.53
2018-06-25T18:51:02.975Z,5.03
2018-06-25T18:53:31.985Z,4.57
2018-06-25T18:56:00.506Z,5.00
2018-06-25T18:58:29.081Z,5.43
2018-06-25T19:00:57.586Z,5.30
2018-06-25T19:03:26.124Z,4.63
2018-06-25T19:05:54.779Z,5.10
2018-06-25T19:08:23.335Z,5.13
2018-06-25T19:10:51.865Z,4.10
2018-06-25T19:13:20.373Z,4.40
2018-06-25T19:15:48.688Z,5.10
2018-06-25T19:18:17.586Z,4.33
2018-06-25T19:20:46.177Z,4.47
2018-06-25T19:23:17.813Z,4.30
2018-06-25T19:25:46.546Z,3.70
2018-06-25T19:28:15.265Z,4.63
2018-06-25T19:30:43.799Z,4.13
2018-06-25T19:33:12.328Z,4.43
2018-06-25T19:35:40.564Z,4.00
2018-06-25T19:38:09.103Z,4.33
2018-06-25T19:40:37.625Z,4.03
2018-06-25T19:43:06.113Z,4.07
2018-06-25T19:45:34.733Z,4.83
2018-06-25T19:48:03.250Z,5.40
2018-06-25T19:50:31.830Z,4.40
2018-06-25T19:53:00.359Z,5.00
2018-06-25T19:55:29.122Z,15.63
2018-06-25T19:57:57.649Z,63.70
2018-06-25T20:00:26.257Z,8.70
2018-06-25T20:02:54.774Z,5.77
2018-06-25T20:05:23.277Z,6.47
2018-06-25T20:07:51.804Z,6.37
2018-06-25T20:10:20.374Z,6.27
2018-06-25T20:12:48.917Z,5.10
2018-06-25T20:15:17.485Z,5.87
2018-06-25T20:17:45.956Z,5.30
2018-06-25T20:20:14.467Z,6.00
2018-06-25T20:22:42.993Z,5.40
2018-06-25T20:25:11.553Z,5.53
2018-06-25T20:27:40.097Z,5.03
2018-06-25T20:30:09.557Z,5.40
2018-06-25T20:32:38.101Z,5.80
2018-06-25T20:35:07.551Z,5.40
2018-06-25T20:37:36.205Z,5.90
2018-06-25T20:40:04.819Z,5.90
2018-06-25T20:42:33.391Z,5.87
2018-06-25T20:45:02.868Z,6.10
2018-06-25T20:47:31.664Z,6.40
2018-06-25T20:50:00.209Z,5.97
2018-06-25T20:52:28.761Z,5.57
2018-06-25T20:54:57.272Z,6.17
2018-06-25T20:57:25.817Z,6.57
2018-06-25T20:59:54.318Z,5.50
2018-06-25T21:02:23.082Z,6.03
2018-06-25T21:04:51.650Z,5.80
2018-06-25T21:07:20.185Z,5.60
2018-06-25T21:09:48.827Z,6.27
2018-06-25T21:12:17.397Z,5.47
2018-06-25T21:14:45.961Z,5.40
2018-06-25T21:17:14.483Z,5.80
2018-06-25T21:19:42.988Z,5.77
2018-06-25T21:22:11.529Z,5.83
2018-06-25T21:24:40.105Z,5.90
2018-06-25T21:27:08.597Z,6.57
2018-06-25T21:29:37.129Z,5.40
2018-06-25T21:32:05.734Z,5.83
2018-06-25T21:34:34.260Z,5.13
2018-06-25T21:37:02.775Z,5.83
2018-06-25T21:39:31.317Z,5.73
2018-06-25T21:41:59.827Z,5.80
2018-06-25T21:44:28.373Z,5.40
2018-06-25T21:46:56.882Z,5.57
2018-06-25T21:49:25.409Z,6.80
2018-06-25T21:51:53.977Z,6.17
2018-06-25T21:54:22.505Z,5.43
2018-06-25T21:56:51.020Z,5.83
2018-06-25T21:59:19.587Z,4.90
2018-06-25T22:01:51.988Z,5.17
2018-06-25T22:04:20.509Z,5.43
2018-06-25T22:06:48.993Z,5.83
2018-06-25T22:09:17.549Z,6.13
2018-06-25T22:11:46.044Z,6.00
2018-06-25T22:14:14.585Z,7.13
2018-06-25T22:16:43.138Z,5.30
2018-06-25T22:19:11.637Z,5.70
2018-06-25T22:21:40.214Z,6.60
2018-06-25T22:24:08.769Z,6.90
2018-06-25T22:26:37.338Z,5.60
2018-06-25T22:29:06.169Z,6.60
2018-06-25T22:31:34.897Z,6.17
2018-06-25T22:34:03.521Z,5.70
2018-06-25T22:36:32.125Z,6.03
2018-06-25T22:39:00.630Z,6.50
2018-06-25T22:41:29.137Z,6.40
2018-06-25T22:44:06.449Z,6.00
2018-06-25T22:46:35.303Z,5.93
2018-06-25T22:49:03.826Z,6.27
2018-06-25T22:51:32.466Z,5.83
2018-06-25T22:54:00.998Z,6.20
2018-06-25T22:56:29.568Z,6.20
2018-06-25T22:58:58.092Z,5.53
2018-06-25T23:01:26.632Z,5.47
2018-06-25T23:03:55.098Z,5.70
2018-06-25T23:06:23.606Z,6.37
2018-06-25T23:08:52.103Z,6.80
2018-06-25T23:11:20.601Z,5.97
2018-06-25T23:13:49.190Z,5.97
2018-06-25T23:16:17.731Z,7.13
2018-06-25T23:18:46.333Z,6.90
2018-06-25T23:21:15.008Z,6.10
2018-06-25T23:23:43.551Z,6.33
2018-06-25T23:26:12.090Z,5.63
2018-06-25T23:28:40.646Z,6.10
2018-06-25T23:31:09.161Z,6.00
2018-06-25T23:33:37.676Z,5.97
2018-06-25T23:36:06.161Z,6.10
2018-06-25T23:38:34.689Z,5.40
2018-06-25T23:41:03.193Z,6.30
2018-06-25T23:43:31.716Z,6.03
2018-06-25T23:46:00.270Z,6.03
2018-06-25T23:48:28.793Z,6.50
2018-06-25T23:50:57.398Z,6.43
2018-06-25T23:53:25.905Z,6.00
2018-06-25T23:55:54.374Z,5.93
2018-06-25T23:58:22.974Z,6.27
